sensor_id;sensor_type;location;lat;lon;timestamp;pressure;altitude;pressure_sealevel;temperature;humidity
30873;BME280;17579;42.690;2.586;2024-02-04T00:00:08;98402.63;;;17.17;27.50
30873;BME280;17579;42.690;2.586;2024-02-04T00:02:33;98400.44;;;17.12;27.53
30873;BME280;17579;42.690;2.586;2024-02-04T00:05:08;98400.91;;;17.07;27.66
30873;BME280;17579;42.690;2.586;2024-02-04T00:07:36;98400.69;;;17.01;27.57
30873;BME280;17579;42.690;2.586;2024-02-04T00:10:10;98389.81;;;16.94;27.53
30873;BME280;17579;42.690;2.586;2024-02-04T00:12:36;98391.97;;;16.90;27.71
30873;BME280;17579;42.690;2.586;2024-02-04T00:15:05;98389.88;;;16.84;27.88
30873;BME280;17579;42.690;2.586;2024-02-04T00:17:31;98387.53;;;16.81;28.08
30873;BME280;17579;42.690;2.586;2024-02-04T00:20:06;98378.97;;;16.77;28.00
30873;BME280;17579;42.690;2.586;2024-02-04T00:22:35;98377.44;;;16.75;28.06
30873;BME280;17579;42.690;2.586;2024-02-04T00:25:01;98382.78;;;16.75;28.28
30873;BME280;17579;42.690;2.586;2024-02-04T00:27:33;98378.63;;;16.72;28.03
30873;BME280;17579;42.690;2.586;2024-02-04T00:30:10;98388.94;;;16.67;28.11
30873;BME280;17579;42.690;2.586;2024-02-04T00:32:35;98378.25;;;16.67;28.00
30873;BME280;17579;42.690;2.586;2024-02-04T00:35:08;98378.03;;;16.60;27.96
30873;BME280;17579;42.690;2.586;2024-02-04T00:37:33;98374.22;;;16.63;28.01
30873;BME280;17579;42.690;2.586;2024-02-04T00:40:08;98380.19;;;16.57;27.66
30873;BME280;17579;42.690;2.586;2024-02-04T00:42:34;98372.00;;;16.58;27.96
30873;BME280;17579;42.690;2.586;2024-02-04T00:45:00;98368.81;;;16.55;27.66
30873;BME280;17579;42.690;2.586;2024-02-04T00:47:25;98367.16;;;16.54;27.71
30873;BME280;17579;42.690;2.586;2024-02-04T00:49:53;98365.31;;;16.54;27.57
30873;BME280;17579;42.690;2.586;2024-02-04T00:52:25;98365.47;;;16.53;27.81
30873;BME280;17579;42.690;2.586;2024-02-04T00:54:50;98371.47;;;16.55;27.52
30873;BME280;17579;42.690;2.586;2024-02-04T00:57:16;98380.03;;;16.58;27.98
30873;BME280;17579;42.690;2.586;2024-02-04T00:59:44;98374.84;;;16.57;27.88
30873;BME280;17579;42.690;2.586;2024-02-04T01:02:10;98372.69;;;16.60;28.03
30873;BME280;17579;42.690;2.586;2024-02-04T01:04:40;98374.84;;;16.57;28.01
30873;BME280;17579;42.690;2.586;2024-02-04T01:07:13;98383.84;;;16.56;28.17
30873;BME280;17579;42.690;2.586;2024-02-04T01:09:53;98379.03;;;16.59;28.13
30873;BME280;17579;42.690;2.586;2024-02-04T01:12:18;98378.03;;;16.60;28.30
30873;BME280;17579;42.690;2.586;2024-02-04T01:14:48;98376.66;;;16.56;28.40
30873;BME280;17579;42.690;2.586;2024-02-04T01:17:17;98377.50;;;16.57;28.68
30873;BME280;17579;42.690;2.586;2024-02-04T01:19:42;98379.47;;;16.55;28.72
30873;BME280;17579;42.690;2.586;2024-02-04T01:22:17;98377.50;;;16.57;28.90
30873;BME280;17579;42.690;2.586;2024-02-04T01:24:42;98375.66;;;16.57;29.03
30873;BME280;17579;42.690;2.586;2024-02-04T01:27:08;98369.50;;;16.57;29.29
30873;BME280;17579;42.690;2.586;2024-02-04T01:29:34;98371.03;;;16.59;29.12
30873;BME280;17579;42.690;2.586;2024-02-04T01:32:02;98373.53;;;16.61;29.31
30873;BME280;17579;42.690;2.586;2024-02-04T01:34:28;98373.38;;;16.62;29.68
30873;BME280;17579;42.690;2.586;2024-02-04T01:36:53;98362.06;;;16.69;29.57
30873;BME280;17579;42.690;2.586;2024-02-04T01:39:19;98373.28;;;16.72;29.32
30873;BME280;17579;42.690;2.586;2024-02-04T01:41:49;98362.44;;;16.74;29.43
30873;BME280;17579;42.690;2.586;2024-02-04T01:44:16;98363.28;;;16.74;29.39
30873;BME280;17579;42.690;2.586;2024-02-04T01:46:51;98361.75;;;16.72;29.66
30873;BME280;17579;42.690;2.586;2024-02-04T01:49:19;98366.25;;;16.71;29.76
30873;BME280;17579;42.690;2.586;2024-02-04T01:51:45;98374.13;;;16.73;29.61
30873;BME280;17579;42.690;2.586;2024-02-04T01:54:11;98361.91;;;16.70;29.61
30873;BME280;17579;42.690;2.586;2024-02-04T01:56:36;98368.22;;;16.69;29.82
30873;BME280;17579;42.690;2.586;2024-02-04T01:59:06;98369.25;;;16.68;29.78
30873;BME280;17579;42.690;2.586;2024-02-04T02:01:39;98363.91;;;16.68;29.78
30873;BME280;17579;42.690;2.586;2024-02-04T02:04:05;98372.38;;;16.63;29.87
30873;BME280;17579;42.690;2.586;2024-02-04T02:06:31;98379.19;;;16.58;29.70
30873;BME280;17579;42.690;2.586;2024-02-04T02:09:02;98370.25;;;16.49;29.94
30873;BME280;17579;42.690;2.586;2024-02-04T02:11:42;98373.88;;;16.40;29.85
30873;BME280;17579;42.690;2.586;2024-02-04T02:14:14;98378.97;;;16.33;29.81
30873;BME280;17579;42.690;2.586;2024-02-04T02:16:49;98374.13;;;16.28;30.20
30873;BME280;17579;42.690;2.586;2024-02-04T02:22:36;98364.88;;;16.23;30.14
30873;BME280;17579;42.690;2.586;2024-02-04T02:25:12;98369.75;;;16.27;30.29
30873;BME280;17579;42.690;2.586;2024-02-04T02:27:47;98363.44;;;16.28;30.27
30873;BME280;17579;42.690;2.586;2024-02-04T02:30:13;98359.06;;;16.27;30.07
30873;BME280;17579;42.690;2.586;2024-02-04T02:32:46;98363.06;;;16.23;30.10
30873;BME280;17579;42.690;2.586;2024-02-04T02:35:17;98356.72;;;16.24;30.39
30873;BME280;17579;42.690;2.586;2024-02-04T02:40:45;98353.00;;;16.17;30.18
30873;BME280;17579;42.690;2.586;2024-02-04T02:43:13;98346.03;;;16.24;30.78
30873;BME280;17579;42.690;2.586;2024-02-04T02:45:42;98350.56;;;16.24;30.54
30873;BME280;17579;42.690;2.586;2024-02-04T02:48:19;98352.53;;;16.22;30.55
30873;BME280;17579;42.690;2.586;2024-02-04T02:50:45;98340.53;;;16.26;30.57
30873;BME280;17579;42.690;2.586;2024-02-04T02:53:10;98341.72;;;16.23;30.48
30873;BME280;17579;42.690;2.586;2024-02-04T02:55:38;98338.88;;;16.25;30.60
30873;BME280;17579;42.690;2.586;2024-02-04T02:58:08;98337.72;;;16.27;30.47
30873;BME280;17579;42.690;2.586;2024-02-04T03:00:33;98333.25;;;16.28;30.64
30873;BME280;17579;42.690;2.586;2024-02-04T03:03:04;98335.38;;;16.24;30.84
30873;BME280;17579;42.690;2.586;2024-02-04T03:05:35;98338.03;;;16.24;30.49
30873;BME280;17579;42.690;2.586;2024-02-04T03:08:01;98333.31;;;16.18;30.88
30873;BME280;17579;42.690;2.586;2024-02-04T03:10:27;98334.63;;;16.14;30.81
30873;BME280;17579;42.690;2.586;2024-02-04T03:12:55;98336.22;;;16.07;30.89
30873;BME280;17579;42.690;2.586;2024-02-04T03:15:21;98340.34;;;16.01;30.75
30873;BME280;17579;42.690;2.586;2024-02-04T03:17:46;98332.97;;;15.95;31.00
30873;BME280;17579;42.690;2.586;2024-02-04T03:20:12;98322.75;;;15.90;30.88
30873;BME280;17579;42.690;2.586;2024-02-04T03:22:37;98321.38;;;15.86;31.08
30873;BME280;17579;42.690;2.586;2024-02-04T03:25:06;98325.34;;;15.82;31.28
30873;BME280;17579;42.690;2.586;2024-02-04T03:27:31;98318.31;;;15.81;31.07
30873;BME280;17579;42.690;2.586;2024-02-04T03:29:57;98310.47;;;15.80;31.11
30873;BME280;17579;42.690;2.586;2024-02-04T03:32:22;98311.56;;;15.77;31.42
30873;BME280;17579;42.690;2.586;2024-02-04T03:34:48;98314.38;;;15.75;31.09
30873;BME280;17579;42.690;2.586;2024-02-04T03:37:13;98311.22;;;15.72;31.35
30873;BME280;17579;42.690;2.586;2024-02-04T03:39:39;98316.00;;;15.68;31.47
30873;BME280;17579;42.690;2.586;2024-02-04T03:42:07;98305.63;;;15.65;31.28
30873;BME280;17579;42.690;2.586;2024-02-04T03:44:32;98312.09;;;15.63;31.36
30873;BME280;17579;42.690;2.586;2024-02-04T03:47:06;98311.28;;;15.62;31.27
30873;BME280;17579;42.690;2.586;2024-02-04T03:49:32;98315.91;;;15.60;31.28
30873;BME280;17579;42.690;2.586;2024-02-04T03:52:00;98314.91;;;15.61;31.66
30873;BME280;17579;42.690;2.586;2024-02-04T03:54:25;98320.41;;;15.59;31.41
30873;BME280;17579;42.690;2.586;2024-02-04T03:56:51;98317.06;;;15.57;31.46
30873;BME280;17579;42.690;2.586;2024-02-04T03:59:16;98321.00;;;15.53;31.71
30873;BME280;17579;42.690;2.586;2024-02-04T04:01:57;98317.13;;;15.48;31.33
30873;BME280;17579;42.690;2.586;2024-02-04T04:04:23;98323.28;;;15.48;31.53
30873;BME280;17579;42.690;2.586;2024-02-04T04:06:54;98329.47;;;15.49;31.57
30873;BME280;17579;42.690;2.586;2024-02-04T04:09:19;98323.28;;;15.48;31.51
30873;BME280;17579;42.690;2.586;2024-02-04T04:11:45;98331.28;;;15.48;31.71
30873;BME280;17579;42.690;2.586;2024-02-04T04:14:15;98343.94;;;15.46;31.88
30873;BME280;17579;42.690;2.586;2024-02-04T04:16:46;98342.25;;;15.45;31.69
30873;BME280;17579;42.690;2.586;2024-02-04T04:19:11;98333.13;;;15.48;31.76
30873;BME280;17579;42.690;2.586;2024-02-04T04:21:40;98332.97;;;15.49;31.70
30873;BME280;17579;42.690;2.586;2024-02-04T04:24:09;98328.63;;;15.48;31.46
30873;BME280;17579;42.690;2.586;2024-02-04T04:26:34;98325.66;;;15.51;31.81
30873;BME280;17579;42.690;2.586;2024-02-04T04:29:00;98322.69;;;15.54;31.88
30873;BME280;17579;42.690;2.586;2024-02-04T04:31:25;98321.53;;;15.57;31.57
30873;BME280;17579;42.690;2.586;2024-02-04T04:33:51;98329.09;;;15.62;30.87
30873;BME280;17579;42.690;2.586;2024-02-04T04:36:18;98321.31;;;15.68;30.53
30873;BME280;17579;42.690;2.586;2024-02-04T04:38:44;98327.72;;;15.75;29.89
30873;BME280;17579;42.690;2.586;2024-02-04T04:41:12;98315.94;;;15.78;29.84
30873;BME280;17579;42.690;2.586;2024-02-04T04:43:39;98312.50;;;15.86;29.04
30873;BME280;17579;42.690;2.586;2024-02-04T04:46:05;98316.56;;;15.90;28.59
30873;BME280;17579;42.690;2.586;2024-02-04T04:48:30;98316.94;;;15.95;28.29
30873;BME280;17579;42.690;2.586;2024-02-04T04:50:56;98313.97;;;15.98;28.00
30873;BME280;17579;42.690;2.586;2024-02-04T04:53:21;98318.31;;;15.99;28.38
